createdAt,value
2023-09-23T00:00:13.992Z,0.30
2023-09-23T00:02:44.722Z,0.30
2023-09-23T00:05:20.836Z,0.30
2023-09-23T00:07:51.448Z,0.30
2023-09-23T00:10:22.061Z,0.30
2023-09-23T00:12:51.807Z,0.30
2023-09-23T00:15:21.993Z,0.30
2023-09-23T00:17:55.210Z,0.30
2023-09-23T00:20:28.711Z,0.30
2023-09-23T00:22:58.724Z,0.30
2023-09-23T00:25:28.373Z,0.30
2023-09-23T00:27:58.161Z,0.20
2023-09-23T00:30:27.997Z,0.25
2023-09-23T00:32:57.756Z,0.30
2023-09-23T00:35:30.311Z,0.30
2023-09-23T00:38:00.198Z,0.30
2023-09-23T00:40:33.657Z,0.30
2023-09-23T00:43:13.129Z,0.30
2023-09-23T00:45:50.306Z,0.30
2023-09-23T00:48:23.055Z,0.30
2023-09-23T00:50:58.102Z,0.30
2023-09-23T00:53:30.684Z,0.30
2023-09-23T00:56:02.367Z,0.30
2023-09-23T00:58:32.314Z,0.30
2023-09-23T01:01:02.569Z,0.30
2023-09-23T01:03:32.488Z,0.35
2023-09-23T01:06:10.288Z,0.30
2023-09-23T01:08:40.367Z,0.30
2023-09-23T01:11:13.460Z,0.30
2023-09-23T01:13:44.564Z,0.30
2023-09-23T01:16:17.364Z,0.30
2023-09-23T01:18:50.462Z,0.30
2023-09-23T01:21:25.037Z,0.30
2023-09-23T01:23:57.483Z,0.30
2023-09-23T01:26:27.334Z,0.30
2023-09-23T01:28:57.120Z,0.30
2023-09-23T01:31:30.821Z,0.30
2023-09-23T01:34:01.082Z,0.30
2023-09-23T01:36:32.991Z,0.30
2023-09-23T01:39:06.255Z,0.30
2023-09-23T01:41:36.040Z,0.30
2023-09-23T01:44:05.794Z,0.30
2023-09-23T01:46:36.539Z,0.30
2023-09-23T01:49:06.235Z,0.30
2023-09-23T01:51:35.894Z,0.30
2023-09-23T01:54:08.670Z,0.20
2023-09-23T01:56:38.536Z,0.30
2023-09-23T01:59:08.743Z,0.30
2023-09-23T02:01:41.350Z,0.30
2023-09-23T02:04:12.414Z,0.30
2023-09-23T02:06:44.403Z,0.30
2023-09-23T02:09:16.926Z,0.30
2023-09-23T02:11:46.814Z,0.30
2023-09-23T02:14:16.646Z,0.38
2023-09-23T02:16:48.496Z,0.30
2023-09-23T02:19:19.210Z,0.30
2023-09-23T02:21:49.090Z,0.30
2023-09-23T02:24:21.394Z,0.30
2023-09-23T02:26:51.254Z,0.30
2023-09-23T02:29:23.485Z,0.30
2023-09-23T02:31:53.320Z,0.30
2023-09-23T02:34:23.067Z,0.30
2023-09-23T02:36:53.271Z,0.30
2023-09-23T02:39:25.655Z,0.30
2023-09-23T02:41:55.431Z,0.28
2023-09-23T02:44:26.246Z,0.30
2023-09-23T02:46:56.626Z,0.20
2023-09-23T02:49:26.551Z,0.30
2023-09-23T02:51:56.215Z,0.30
2023-09-23T02:54:31.173Z,0.30
2023-09-23T02:57:04.543Z,0.30
2023-09-23T02:59:42.824Z,0.30
2023-09-23T03:02:21.637Z,0.22
2023-09-23T03:04:59.530Z,0.30
2023-09-23T03:07:36.152Z,0.30
2023-09-23T03:10:13.694Z,0.40
2023-09-23T03:12:52.585Z,0.30
2023-09-23T03:15:29.257Z,0.30
2023-09-23T03:18:01.379Z,0.30
2023-09-23T03:20:31.642Z,0.30
2023-09-23T03:23:01.340Z,0.25
2023-09-23T03:25:33.679Z,0.30
2023-09-23T03:28:03.643Z,0.30
2023-09-23T03:30:35.082Z,0.30
2023-09-23T03:33:04.959Z,0.30
2023-09-23T03:35:38.876Z,0.25
2023-09-23T03:38:09.435Z,0.30
2023-09-23T03:40:41.947Z,0.40
2023-09-23T03:43:13.603Z,0.30
2023-09-23T03:45:44.112Z,0.30
2023-09-23T03:48:14.123Z,0.30
2023-09-23T03:50:43.835Z,0.30
2023-09-23T03:53:13.753Z,0.30
2023-09-23T03:55:48.561Z,0.30
2023-09-23T03:58:21.380Z,0.30
2023-09-23T04:00:51.573Z,0.30
2023-09-23T04:03:21.664Z,0.40
2023-09-23T04:05:59.662Z,0.30
2023-09-23T04:08:30.899Z,0.40
2023-09-23T04:11:05.086Z,0.30
2023-09-23T04:13:35.154Z,0.30
2023-09-23T04:16:06.950Z,0.30
2023-09-23T04:18:36.755Z,0.30
2023-09-23T04:21:06.979Z,0.30
2023-09-23T04:23:36.917Z,0.30
2023-09-23T04:26:09.742Z,0.30
2023-09-23T04:28:40.280Z,0.30
2023-09-23T04:31:10.437Z,0.30
2023-09-23T04:33:40.895Z,0.32
2023-09-23T04:36:12.609Z,0.30
2023-09-23T04:38:45.137Z,0.30
2023-09-23T04:41:17.790Z,0.40
2023-09-23T04:43:49.195Z,0.30
2023-09-23T04:46:19.246Z,0.30
2023-09-23T04:48:49.214Z,0.30
2023-09-23T04:51:18.890Z,0.30
2023-09-23T04:53:48.615Z,0.30
2023-09-23T04:56:20.912Z,0.30
2023-09-23T04:58:51.126Z,0.30
2023-09-23T05:01:20.940Z,0.30
2023-09-23T05:03:50.643Z,0.30
2023-09-23T05:06:20.393Z,0.30
2023-09-23T05:08:50.105Z,0.30
2023-09-23T05:11:22.376Z,0.30
2023-09-23T05:13:52.517Z,0.30
2023-09-23T05:16:23.951Z,0.40
2023-09-23T05:18:54.773Z,0.40
2023-09-23T05:21:25.726Z,0.30
2023-09-23T05:23:57.468Z,0.30
2023-09-23T05:26:29.849Z,0.30
2023-09-23T05:28:59.666Z,0.30
2023-09-23T05:31:30.280Z,0.30
2023-09-23T05:34:00.113Z,0.40
2023-09-23T05:36:29.888Z,0.30
2023-09-23T05:39:00.352Z,0.30
2023-09-23T05:41:32.794Z,0.40
2023-09-23T05:44:02.608Z,0.30
2023-09-23T05:46:32.846Z,0.40
2023-09-23T05:49:04.168Z,0.30
2023-09-23T05:51:34.816Z,0.30
2023-09-23T05:54:04.552Z,0.30
2023-09-23T05:56:36.762Z,0.30
2023-09-23T05:59:09.505Z,0.30
2023-09-23T06:01:42.240Z,0.30
2023-09-23T06:04:12.707Z,0.30
2023-09-23T06:06:42.373Z,0.40
2023-09-23T06:09:12.215Z,0.30
2023-09-23T06:11:44.794Z,0.30
2023-09-23T06:14:14.639Z,0.30
2023-09-23T06:16:45.531Z,0.30
2023-09-23T06:19:15.372Z,0.40
2023-09-23T06:21:45.050Z,0.30
2023-09-23T06:24:15.073Z,0.30
2023-09-23T06:26:47.324Z,0.30
2023-09-23T06:29:17.775Z,0.30
2023-09-23T06:31:47.455Z,0.30
2023-09-23T06:34:18.301Z,0.40
2023-09-23T06:36:48.086Z,0.30
2023-09-23T06:39:17.785Z,0.30
2023-09-23T06:41:50.201Z,0.30
2023-09-23T06:44:20.062Z,0.22
2023-09-23T06:46:51.329Z,0.30
2023-09-23T06:49:21.423Z,0.30
2023-09-23T06:51:51.102Z,0.30
2023-09-23T06:54:20.934Z,0.20
2023-09-23T06:56:53.394Z,0.30
2023-09-23T06:59:23.364Z,0.30
2023-09-23T07:01:53.276Z,0.30
2023-09-23T07:04:23.195Z,0.30
2023-09-23T07:06:52.922Z,0.30
2023-09-23T07:09:22.649Z,0.30
2023-09-23T07:11:55.148Z,0.30
2023-09-23T07:14:25.081Z,0.20
2023-09-23T07:16:54.879Z,0.20
2023-09-23T07:19:24.706Z,0.20
2023-09-23T07:21:54.445Z,0.20
2023-09-23T07:24:24.382Z,0.20
2023-09-23T07:26:58.042Z,0.22
2023-09-23T07:29:28.145Z,0.20
2023-09-23T07:31:59.799Z,0.25
2023-09-23T07:34:29.564Z,0.20
2023-09-23T07:36:59.245Z,0.30
2023-09-23T07:39:29.506Z,0.20
2023-09-23T07:42:01.827Z,0.20
2023-09-23T07:44:31.540Z,0.20
2023-09-23T07:47:01.287Z,0.20
2023-09-23T07:49:31.067Z,0.30
2023-09-23T07:52:00.717Z,0.30
2023-09-23T07:54:30.516Z,0.30
2023-09-23T07:57:02.857Z,0.20
2023-09-23T07:59:32.782Z,0.30
2023-09-23T08:02:02.625Z,0.30
2023-09-23T08:04:32.974Z,0.30
2023-09-23T08:07:02.642Z,0.20
2023-09-23T08:09:33.009Z,0.20
2023-09-23T08:12:05.386Z,0.20
2023-09-23T08:14:35.174Z,0.20
2023-09-23T08:17:04.936Z,0.20
2023-09-23T08:19:34.748Z,0.30
2023-09-23T08:22:04.660Z,0.20
2023-09-23T08:24:34.512Z,0.20
2023-09-23T08:27:06.842Z,0.20
2023-09-23T08:29:37.677Z,0.20
2023-09-23T08:32:08.089Z,0.20
2023-09-23T08:34:37.898Z,0.10
2023-09-23T08:37:07.546Z,0.20
2023-09-23T08:39:37.415Z,0.10
2023-09-23T08:42:09.752Z,0.20
2023-09-23T08:44:40.186Z,0.10
2023-09-23T08:47:09.916Z,0.20
2023-09-23T08:49:41.437Z,0.20
2023-09-23T08:52:12.087Z,0.20
2023-09-23T08:54:42.932Z,0.20
2023-09-23T08:57:15.591Z,0.25
2023-09-23T08:59:45.446Z,0.20
2023-09-23T09:02:19.816Z,0.10
2023-09-23T09:04:49.611Z,0.20
2023-09-23T09:07:19.463Z,0.13
2023-09-23T09:09:49.227Z,0.10
2023-09-23T09:12:21.505Z,0.20
2023-09-23T09:14:54.715Z,0.10
2023-09-23T09:17:24.539Z,0.20
2023-09-23T09:19:54.247Z,0.20
2023-09-23T09:22:24.004Z,0.20
2023-09-23T09:24:53.888Z,0.10
2023-09-23T09:27:26.249Z,0.20
2023-09-23T09:30:07.129Z,0.20
2023-09-23T09:32:45.758Z,0.10
2023-09-23T09:35:19.150Z,0.20
2023-09-23T09:37:57.824Z,0.10
2023-09-23T09:40:33.860Z,0.10
2023-09-23T09:43:08.003Z,0.20
2023-09-23T09:45:41.916Z,0.20
2023-09-23T09:48:14.308Z,0.10
2023-09-23T09:50:44.886Z,0.20
2023-09-23T09:53:14.608Z,0.20
2023-09-23T09:55:45.904Z,0.20
2023-09-23T09:58:18.310Z,0.20
2023-09-23T10:00:51.995Z,0.20
2023-09-23T10:03:29.653Z,0.20
2023-09-23T10:06:03.435Z,0.20
2023-09-23T10:08:40.233Z,0.20
2023-09-23T10:11:13.278Z,0.13
2023-09-23T10:13:47.286Z,0.20
2023-09-23T10:16:20.765Z,0.20
2023-09-23T10:18:58.882Z,0.10
2023-09-23T10:21:31.606Z,0.20
2023-09-23T10:24:04.385Z,0.20
2023-09-23T10:26:34.360Z,0.20
2023-09-23T10:29:07.969Z,0.20
2023-09-23T10:31:38.622Z,0.20
2023-09-23T10:34:10.012Z,0.20
2023-09-23T10:36:40.092Z,0.20
2023-09-23T10:39:19.024Z,0.17
2023-09-23T10:41:48.781Z,0.10
2023-09-23T10:44:26.881Z,0.20
2023-09-23T10:46:57.413Z,0.20
2023-09-23T10:49:28.060Z,0.20
2023-09-23T10:51:58.650Z,0.20
2023-09-23T10:54:29.247Z,0.20
2023-09-23T10:57:01.382Z,0.10
2023-09-23T10:59:34.771Z,0.10
2023-09-23T11:02:08.130Z,0.10
2023-09-23T11:04:38.178Z,0.10
2023-09-23T11:07:09.140Z,0.10
2023-09-23T11:09:39.371Z,0.10
2023-09-23T11:12:14.218Z,0.10
2023-09-23T11:14:49.457Z,0.10
2023-09-23T11:17:26.905Z,0.10
2023-09-23T11:19:58.100Z,0.10
2023-09-23T11:22:29.137Z,0.10
2023-09-23T11:24:59.973Z,0.17
2023-09-23T11:27:31.788Z,0.10
2023-09-23T11:30:06.309Z,0.20
2023-09-23T11:32:36.543Z,0.10
2023-09-23T11:35:07.161Z,0.10
2023-09-23T11:37:36.870Z,0.20
2023-09-23T11:40:07.927Z,0.20
2023-09-23T11:42:37.731Z,0.10
2023-09-23T11:45:11.242Z,0.10
2023-09-23T11:47:41.054Z,0.10
2023-09-23T11:50:11.438Z,0.15
2023-09-23T11:52:41.166Z,0.20
2023-09-23T11:55:13.601Z,0.15
2023-09-23T11:57:43.806Z,0.20
2023-09-23T12:00:17.658Z,0.10
2023-09-23T12:02:49.397Z,0.10
2023-09-23T12:05:22.222Z,0.10
2023-09-23T12:07:52.239Z,0.20
2023-09-23T12:10:21.979Z,0.10
2023-09-23T12:12:51.718Z,0.17
2023-09-23T12:15:25.083Z,0.20
2023-09-23T12:17:54.982Z,0.20
2023-09-23T12:20:25.293Z,0.20
2023-09-23T12:22:55.285Z,0.10
2023-09-23T12:25:24.927Z,0.10
2023-09-23T12:27:54.786Z,0.10
2023-09-23T12:30:27.266Z,0.20
2023-09-23T12:32:57.004Z,0.20
2023-09-23T12:35:26.648Z,0.10
2023-09-23T12:37:56.234Z,0.20
2023-09-23T12:40:26.196Z,0.10
2023-09-23T12:42:56.207Z,0.15
2023-09-23T12:45:28.633Z,0.10
2023-09-23T12:47:58.620Z,0.20
2023-09-23T12:50:28.507Z,0.15
2023-09-23T12:52:58.312Z,0.20
2023-09-23T12:55:28.110Z,0.10
2023-09-23T12:57:57.867Z,0.10
2023-09-23T13:00:30.163Z,0.20
2023-09-23T13:03:00.112Z,0.10
2023-09-23T13:05:29.853Z,0.10
2023-09-23T13:07:59.680Z,0.20
2023-09-23T13:10:29.488Z,0.10
2023-09-23T13:12:59.249Z,0.20
2023-09-23T13:15:31.753Z,0.20
2023-09-23T13:18:02.553Z,0.10
2023-09-23T13:20:32.511Z,0.20
2023-09-23T13:23:03.945Z,0.10
2023-09-23T13:25:33.984Z,0.15
2023-09-23T13:28:03.682Z,0.20
2023-09-23T13:30:36.224Z,0.20
2023-09-23T13:33:10.259Z,0.20
2023-09-23T13:35:40.747Z,0.20
2023-09-23T13:38:10.642Z,0.13
2023-09-23T13:40:40.390Z,0.20
2023-09-23T13:43:10.120Z,0.20
2023-09-23T13:45:42.380Z,0.20
2023-09-23T13:48:12.921Z,0.20
2023-09-23T13:50:42.779Z,0.20
2023-09-23T13:53:12.487Z,0.20
2023-09-23T13:55:42.179Z,0.20
2023-09-23T13:58:12.359Z,0.20
2023-09-23T14:00:44.642Z,0.10
2023-09-23T14:03:14.636Z,0.20
2023-09-23T14:05:44.301Z,0.10
2023-09-23T14:08:14.145Z,0.10
2023-09-23T14:10:43.855Z,0.10
2023-09-23T14:13:13.617Z,0.20
2023-09-23T14:15:46.611Z,0.25
2023-09-23T14:18:16.577Z,0.20
2023-09-23T14:20:46.827Z,0.20
2023-09-23T14:23:16.594Z,0.20
2023-09-23T14:25:46.391Z,0.20
2023-09-23T14:28:16.075Z,0.20
2023-09-23T14:30:48.766Z,0.25
2023-09-23T14:33:18.703Z,0.20
2023-09-23T14:35:48.420Z,0.20
2023-09-23T14:38:18.392Z,0.20
2023-09-23T14:40:48.230Z,0.20
2023-09-23T14:43:17.925Z,0.20
2023-09-23T14:45:50.230Z,0.20
2023-09-23T14:48:20.559Z,0.20
2023-09-23T14:50:50.521Z,0.20
2023-09-23T14:53:20.576Z,0.20
2023-09-23T14:55:50.315Z,0.20
2023-09-23T14:58:20.395Z,0.20
2023-09-23T15:00:52.770Z,0.20
2023-09-23T15:03:22.742Z,0.20
2023-09-23T15:05:52.584Z,0.20
2023-09-23T15:08:22.418Z,0.30
2023-09-23T15:10:53.713Z,0.20
2023-09-23T15:13:24.022Z,0.20
2023-09-23T15:15:56.899Z,0.20
2023-09-23T15:18:26.699Z,0.22
2023-09-23T15:20:56.609Z,0.20
2023-09-23T15:23:27.124Z,0.20
2023-09-23T15:25:56.880Z,0.20
2023-09-23T15:28:26.692Z,0.20
2023-09-23T15:30:59.675Z,0.20
2023-09-23T15:33:29.637Z,0.20
2023-09-23T15:35:59.324Z,0.20
2023-09-23T15:38:29.006Z,0.20
2023-09-23T15:41:00.057Z,0.20
2023-09-23T15:43:30.080Z,0.20
2023-09-23T15:46:03.668Z,0.20
2023-09-23T15:48:33.665Z,0.20
2023-09-23T15:51:12.031Z,0.20
2023-09-23T15:53:42.362Z,0.20
2023-09-23T15:56:12.186Z,0.20
2023-09-23T15:58:42.741Z,0.30
2023-09-23T16:01:15.383Z,0.30
2023-09-23T16:03:45.258Z,0.28
2023-09-23T16:06:15.046Z,0.20
2023-09-23T16:08:44.822Z,0.17
2023-09-23T16:11:15.944Z,0.20
2023-09-23T16:13:46.072Z,0.20
2023-09-23T16:16:18.782Z,0.20
2023-09-23T16:18:48.791Z,0.20
2023-09-23T16:21:18.734Z,0.20
2023-09-23T16:23:48.478Z,0.20
2023-09-23T16:26:21.104Z,0.20
2023-09-23T16:28:51.146Z,0.20
2023-09-23T16:31:23.387Z,0.20
2023-09-23T16:33:54.181Z,0.20
2023-09-23T16:36:24.957Z,0.20
2023-09-23T16:38:54.701Z,0.30
2023-09-23T16:41:25.164Z,0.20
2023-09-23T16:43:54.859Z,0.20
2023-09-23T16:46:27.649Z,0.20
2023-09-23T16:48:57.676Z,0.20
2023-09-23T16:51:27.260Z,0.20
2023-09-23T16:53:57.682Z,0.20
2023-09-23T16:56:27.370Z,0.20
2023-09-23T16:58:57.101Z,0.20
2023-09-23T17:01:29.439Z,0.20
2023-09-23T17:03:59.164Z,0.20
2023-09-23T17:06:28.819Z,0.20
2023-09-23T17:08:58.529Z,0.20
2023-09-23T17:11:28.382Z,0.20
2023-09-23T17:13:58.118Z,0.20
2023-09-23T17:16:30.370Z,0.20
2023-09-23T17:19:00.266Z,0.20
2023-09-23T17:21:29.875Z,0.20
2023-09-23T17:23:59.544Z,0.30
2023-09-23T17:26:29.242Z,0.20
2023-09-23T17:29:00.728Z,0.25
2023-09-23T17:31:33.286Z,0.30
2023-09-23T17:34:03.300Z,0.20
2023-09-23T17:36:33.016Z,0.20
2023-09-23T17:39:04.068Z,0.20
2023-09-23T17:41:34.153Z,0.20
2023-09-23T17:44:04.159Z,0.28
2023-09-23T17:46:36.768Z,0.20
2023-09-23T17:49:06.987Z,0.20
2023-09-23T17:51:36.829Z,0.30
2023-09-23T17:54:06.862Z,0.20
2023-09-23T17:56:36.554Z,0.20
2023-09-23T17:59:07.359Z,0.20
2023-09-23T18:01:39.841Z,0.20
2023-09-23T18:04:11.559Z,0.20
2023-09-23T18:06:41.626Z,0.30
2023-09-23T18:09:12.963Z,0.22
2023-09-23T18:11:44.866Z,0.25
2023-09-23T18:14:14.848Z,0.20
2023-09-23T18:16:47.064Z,0.20
2023-09-23T18:19:17.453Z,0.20
2023-09-23T18:21:47.536Z,0.30
2023-09-23T18:24:17.318Z,0.20
2023-09-23T18:26:48.009Z,0.22
2023-09-23T18:29:17.904Z,0.20
2023-09-23T18:31:52.291Z,0.20
2023-09-23T18:34:22.101Z,0.30
2023-09-23T18:36:51.867Z,0.20
2023-09-23T18:39:21.562Z,0.20
2023-09-23T18:41:51.302Z,0.20
2023-09-23T18:44:21.868Z,0.20
2023-09-23T18:46:54.229Z,0.20
2023-09-23T18:49:24.046Z,0.20
2023-09-23T18:51:53.727Z,0.20
2023-09-23T18:54:23.409Z,0.20
2023-09-23T18:56:53.359Z,0.20
2023-09-23T18:59:23.031Z,0.30
2023-09-23T19:01:56.462Z,0.20
2023-09-23T19:04:26.857Z,0.20
2023-09-23T19:06:57.034Z,0.20
2023-09-23T19:09:28.103Z,0.20
2023-09-23T19:11:58.032Z,0.28
2023-09-23T19:14:27.870Z,0.20
2023-09-23T19:17:00.318Z,0.20
2023-09-23T19:19:30.138Z,0.30
2023-09-23T19:21:59.818Z,0.20
2023-09-23T19:24:29.512Z,0.30
2023-09-23T19:26:59.181Z,0.20
2023-09-23T19:29:29.132Z,0.20
2023-09-23T19:32:01.378Z,0.30
2023-09-23T19:34:31.724Z,0.30
2023-09-23T19:37:01.699Z,0.20
2023-09-23T19:39:32.622Z,0.30
2023-09-23T19:42:02.667Z,0.30
2023-09-23T19:44:32.479Z,0.30
2023-09-23T19:47:05.795Z,0.20
2023-09-23T19:49:36.027Z,0.30
2023-09-23T19:52:08.768Z,0.30
2023-09-23T19:54:38.548Z,0.20
2023-09-23T19:57:08.207Z,0.20
2023-09-23T19:59:38.098Z,0.20
2023-09-23T20:02:12.120Z,0.25
2023-09-23T20:04:46.328Z,0.30
2023-09-23T20:07:17.350Z,0.20
2023-09-23T20:09:47.231Z,0.25
2023-09-23T20:12:16.858Z,0.20
2023-09-23T20:14:47.382Z,0.30
2023-09-23T20:17:20.087Z,0.20
2023-09-23T20:19:49.976Z,0.22
2023-09-23T20:22:19.631Z,0.30
2023-09-23T20:24:50.251Z,0.20
2023-09-23T20:27:20.410Z,0.20
2023-09-23T20:30:05.439Z,0.20
2023-09-23T20:32:39.943Z,0.20
2023-09-23T20:35:12.539Z,0.25
2023-09-23T20:37:43.698Z,0.20
2023-09-23T20:40:17.383Z,0.22
2023-09-23T20:42:47.689Z,0.30
2023-09-23T20:45:18.929Z,0.22
2023-09-23T20:47:51.468Z,0.30
2023-09-23T20:50:21.608Z,0.25
2023-09-23T20:52:51.313Z,0.20
2023-09-23T20:55:21.072Z,0.25
2023-09-23T20:57:50.971Z,0.30
2023-09-23T21:00:22.904Z,0.30
2023-09-23T21:02:55.393Z,0.30
2023-09-23T21:05:25.630Z,0.30
2023-09-23T21:07:55.738Z,0.30
2023-09-23T21:10:25.880Z,0.20
2023-09-23T21:12:56.470Z,0.20
2023-09-23T21:15:26.521Z,0.30
2023-09-23T21:18:00.647Z,0.30
2023-09-23T21:20:30.680Z,0.30
2023-09-23T21:23:02.739Z,0.20
2023-09-23T21:25:33.309Z,0.30
2023-09-23T21:28:03.092Z,0.20
2023-09-23T21:30:32.756Z,0.20
2023-09-23T21:33:05.132Z,0.30
2023-09-23T21:35:35.610Z,0.30
2023-09-23T21:38:05.928Z,0.22
2023-09-23T21:40:35.718Z,0.30
2023-09-23T21:43:05.418Z,0.30
2023-09-23T21:45:35.317Z,0.30
2023-09-23T21:48:08.308Z,0.30
2023-09-23T21:50:38.303Z,0.30
2023-09-23T21:53:08.414Z,0.20
2023-09-23T21:55:38.428Z,0.30
2023-09-23T21:58:09.008Z,0.30
2023-09-23T22:00:38.946Z,0.30
2023-09-23T22:03:12.584Z,0.30
2023-09-23T22:05:42.448Z,0.30
2023-09-23T22:08:12.090Z,0.30
2023-09-23T22:10:45.049Z,0.30
2023-09-23T22:13:19.087Z,0.20
2023-09-23T22:15:49.986Z,0.30
2023-09-23T22:18:23.973Z,0.30
2023-09-23T22:20:54.158Z,0.30
2023-09-23T22:23:24.024Z,0.30
2023-09-23T22:25:54.613Z,0.20
2023-09-23T22:28:24.238Z,0.30
2023-09-23T22:30:53.994Z,0.30
2023-09-23T22:33:27.069Z,0.30
2023-09-23T22:35:56.970Z,0.30
2023-09-23T22:38:27.038Z,0.30
2023-09-23T22:40:56.945Z,0.30
2023-09-23T22:43:27.454Z,0.30
2023-09-23T22:45:57.402Z,0.30
2023-09-23T22:48:29.971Z,0.30
2023-09-23T22:50:59.752Z,0.30
2023-09-23T22:53:29.397Z,0.30
2023-09-23T22:56:00.157Z,0.30
2023-09-23T22:58:30.024Z,0.30
2023-09-23T23:00:59.645Z,0.30
2023-09-23T23:03:32.692Z,0.28
2023-09-23T23:06:06.527Z,0.30
2023-09-23T23:08:37.518Z,0.30
2023-09-23T23:11:10.407Z,0.30
2023-09-23T23:13:42.325Z,0.30
2023-09-23T23:16:13.668Z,0.30
2023-09-23T23:18:46.339Z,0.30
2023-09-23T23:21:16.192Z,0.30
2023-09-23T23:23:45.901Z,0.30
2023-09-23T23:26:16.609Z,0.30
2023-09-23T23:28:46.423Z,0.30
2023-09-23T23:31:16.132Z,0.30
2023-09-23T23:33:49.027Z,0.30
2023-09-23T23:36:19.117Z,0.22
2023-09-23T23:38:48.821Z,0.40
2023-09-23T23:41:19.134Z,0.30
2023-09-23T23:43:49.886Z,0.30
2023-09-23T23:46:20.789Z,0.30
2023-09-23T23:48:53.479Z,0.30
2023-09-23T23:51:25.597Z,0.22
2023-09-23T23:53:55.574Z,0.30
2023-09-23T23:56:24.292Z,0.30
2023-09-23T23:58:55.309Z,0.30
